sensor_id;sensor_type;location;lat;lon;timestamp;P1;durP1;ratioP1;P2;durP2;ratioP2
78346;SDS011;67803;41.330;69.282;2024-02-26T00:01:34;94.88;;;40.53;;
78346;SDS011;67803;41.330;69.282;2024-02-26T00:04:05;90.22;;;38.53;;
78346;SDS011;67803;41.330;69.282;2024-02-26T00:06:35;91.32;;;37.60;;
78346;SDS011;67803;41.330;69.282;2024-02-26T00:09:07;101.07;;;38.15;;
78346;SDS011;67803;41.330;69.282;2024-02-26T00:11:38;91.53;;;35.90;;
78346;SDS011;67803;41.330;69.282;2024-02-26T00:14:08;87.70;;;35.00;;
78346;SDS011;67803;41.330;69.282;2024-02-26T00:16:42;93.78;;;39.20;;
78346;SDS011;67803;41.330;69.282;2024-02-26T00:19:12;87.35;;;35.30;;
78346;SDS011;67803;41.330;69.282;2024-02-26T00:21:43;84.50;;;35.35;;
78346;SDS011;67803;41.330;69.282;2024-02-26T00:24:13;77.55;;;33.67;;
78346;SDS011;67803;41.330;69.282;2024-02-26T00:26:44;77.50;;;32.70;;
78346;SDS011;67803;41.330;69.282;2024-02-26T00:29:14;75.40;;;30.25;;
78346;SDS011;67803;41.330;69.282;2024-02-26T00:31:45;72.57;;;31.98;;
78346;SDS011;67803;41.330;69.282;2024-02-26T00:34:16;74.30;;;30.85;;
78346;SDS011;67803;41.330;69.282;2024-02-26T00:36:46;73.43;;;31.60;;
78346;SDS011;67803;41.330;69.282;2024-02-26T00:39:16;63.08;;;29.83;;
78346;SDS011;67803;41.330;69.282;2024-02-26T00:41:47;68.07;;;28.88;;
78346;SDS011;67803;41.330;69.282;2024-02-26T00:44:17;69.38;;;29.70;;
78346;SDS011;67803;41.330;69.282;2024-02-26T00:46:48;64.40;;;28.50;;
78346;SDS011;67803;41.330;69.282;2024-02-26T00:49:18;62.08;;;28.20;;
78346;SDS011;67803;41.330;69.282;2024-02-26T00:51:49;68.88;;;29.02;;
78346;SDS011;67803;41.330;69.282;2024-02-26T00:54:19;64.30;;;28.65;;
78346;SDS011;67803;41.330;69.282;2024-02-26T00:56:50;61.80;;;29.48;;
78346;SDS011;67803;41.330;69.282;2024-02-26T00:59:20;60.63;;;27.63;;
78346;SDS011;67803;41.330;69.282;2024-02-26T01:01:51;67.97;;;29.02;;
78346;SDS011;67803;41.330;69.282;2024-02-26T01:04:21;74.20;;;31.85;;
78346;SDS011;67803;41.330;69.282;2024-02-26T01:06:52;72.93;;;32.92;;
78346;SDS011;67803;41.330;69.282;2024-02-26T01:09:22;73.82;;;33.33;;
78346;SDS011;67803;41.330;69.282;2024-02-26T01:11:53;80.65;;;36.60;;
78346;SDS011;67803;41.330;69.282;2024-02-26T01:14:23;90.65;;;38.88;;
78346;SDS011;67803;41.330;69.282;2024-02-26T01:16:54;86.47;;;36.40;;
78346;SDS011;67803;41.330;69.282;2024-02-26T01:19:24;90.88;;;39.35;;
78346;SDS011;67803;41.330;69.282;2024-02-26T01:21:55;86.35;;;40.80;;
78346;SDS011;67803;41.330;69.282;2024-02-26T01:24:25;94.43;;;42.65;;
78346;SDS011;67803;41.330;69.282;2024-02-26T01:26:56;92.00;;;43.60;;
78346;SDS011;67803;41.330;69.282;2024-02-26T01:29:26;104.80;;;44.90;;
78346;SDS011;67803;41.330;69.282;2024-02-26T01:31:56;103.03;;;46.28;;
78346;SDS011;67803;41.330;69.282;2024-02-26T01:34:27;102.43;;;45.13;;
78346;SDS011;67803;41.330;69.282;2024-02-26T01:36:58;99.00;;;45.75;;
78346;SDS011;67803;41.330;69.282;2024-02-26T01:39:28;105.57;;;46.78;;
78346;SDS011;67803;41.330;69.282;2024-02-26T01:42:00;102.80;;;49.75;;
78346;SDS011;67803;41.330;69.282;2024-02-26T01:44:31;109.85;;;48.30;;
78346;SDS011;67803;41.330;69.282;2024-02-26T01:47:02;111.90;;;50.13;;
78346;SDS011;67803;41.330;69.282;2024-02-26T01:49:33;117.00;;;52.50;;
78346;SDS011;67803;41.330;69.282;2024-02-26T01:52:03;104.70;;;47.55;;
78346;SDS011;67803;41.330;69.282;2024-02-26T01:54:34;107.97;;;49.85;;
78346;SDS011;67803;41.330;69.282;2024-02-26T01:57:05;105.15;;;51.00;;
78346;SDS011;67803;41.330;69.282;2024-02-26T01:59:36;110.63;;;51.33;;
78346;SDS011;67803;41.330;69.282;2024-02-26T02:02:07;116.80;;;54.88;;
78346;SDS011;67803;41.330;69.282;2024-02-26T02:04:39;117.70;;;52.67;;
78346;SDS011;67803;41.330;69.282;2024-02-26T02:07:10;124.60;;;56.25;;
78346;SDS011;67803;41.330;69.282;2024-02-26T02:09:40;112.55;;;51.83;;
78346;SDS011;67803;41.330;69.282;2024-02-26T02:12:11;129.13;;;54.55;;
78346;SDS011;67803;41.330;69.282;2024-02-26T02:14:41;116.28;;;55.15;;
78346;SDS011;67803;41.330;69.282;2024-02-26T02:17:12;113.82;;;53.17;;
78346;SDS011;67803;41.330;69.282;2024-02-26T02:19:42;119.97;;;57.75;;
78346;SDS011;67803;41.330;69.282;2024-02-26T02:22:13;113.40;;;53.42;;
78346;SDS011;67803;41.330;69.282;2024-02-26T02:24:44;111.32;;;51.80;;
78346;SDS011;67803;41.330;69.282;2024-02-26T02:27:14;116.32;;;54.55;;
78346;SDS011;67803;41.330;69.282;2024-02-26T02:29:45;115.47;;;52.13;;
78346;SDS011;67803;41.330;69.282;2024-02-26T02:32:16;106.45;;;51.97;;
78346;SDS011;67803;41.330;69.282;2024-02-26T02:34:47;110.70;;;51.47;;
78346;SDS011;67803;41.330;69.282;2024-02-26T02:37:17;114.85;;;51.95;;
78346;SDS011;67803;41.330;69.282;2024-02-26T02:39:48;109.28;;;49.42;;
78346;SDS011;67803;41.330;69.282;2024-02-26T02:42:18;110.72;;;50.40;;
78346;SDS011;67803;41.330;69.282;2024-02-26T02:44:49;114.82;;;52.85;;
78346;SDS011;67803;41.330;69.282;2024-02-26T02:47:19;118.90;;;52.22;;
78346;SDS011;67803;41.330;69.282;2024-02-26T02:49:50;113.90;;;52.42;;
78346;SDS011;67803;41.330;69.282;2024-02-26T02:52:20;120.55;;;52.92;;
78346;SDS011;67803;41.330;69.282;2024-02-26T02:54:51;114.97;;;50.60;;
78346;SDS011;67803;41.330;69.282;2024-02-26T02:57:21;109.53;;;50.05;;
78346;SDS011;67803;41.330;69.282;2024-02-26T02:59:52;133.20;;;55.03;;
78346;SDS011;67803;41.330;69.282;2024-02-26T03:02:22;141.98;;;58.50;;
78346;SDS011;67803;41.330;69.282;2024-02-26T03:04:55;117.50;;;50.55;;
78346;SDS011;67803;41.330;69.282;2024-02-26T03:07:25;119.38;;;51.42;;
78346;SDS011;67803;41.330;69.282;2024-02-26T03:09:55;122.55;;;53.42;;
78346;SDS011;67803;41.330;69.282;2024-02-26T03:12:26;121.78;;;53.25;;
78346;SDS011;67803;41.330;69.282;2024-02-26T03:14:57;119.10;;;52.88;;
78346;SDS011;67803;41.330;69.282;2024-02-26T03:17:28;122.50;;;55.22;;
78346;SDS011;67803;41.330;69.282;2024-02-26T03:19:59;125.78;;;54.42;;
78346;SDS011;67803;41.330;69.282;2024-02-26T03:22:29;128.98;;;54.13;;
78346;SDS011;67803;41.330;69.282;2024-02-26T03:25:00;159.85;;;59.03;;
78346;SDS011;67803;41.330;69.282;2024-02-26T03:27:30;129.32;;;55.90;;
78346;SDS011;67803;41.330;69.282;2024-02-26T03:30:01;156.90;;;60.58;;
78346;SDS011;67803;41.330;69.282;2024-02-26T03:32:31;174.05;;;61.20;;
78346;SDS011;67803;41.330;69.282;2024-02-26T03:35:02;148.77;;;57.95;;
78346;SDS011;67803;41.330;69.282;2024-02-26T03:37:32;160.18;;;57.80;;
78346;SDS011;67803;41.330;69.282;2024-02-26T03:40:03;164.75;;;59.05;;
78346;SDS011;67803;41.330;69.282;2024-02-26T03:42:34;224.38;;;61.72;;
78346;SDS011;67803;41.330;69.282;2024-02-26T03:45:05;141.60;;;55.20;;
78346;SDS011;67803;41.330;69.282;2024-02-26T03:47:37;152.20;;;54.92;;
78346;SDS011;67803;41.330;69.282;2024-02-26T03:50:08;163.57;;;52.63;;
78346;SDS011;67803;41.330;69.282;2024-02-26T03:52:38;132.07;;;48.50;;
78346;SDS011;67803;41.330;69.282;2024-02-26T03:55:09;128.27;;;49.83;;
78346;SDS011;67803;41.330;69.282;2024-02-26T03:57:40;186.98;;;49.90;;
78346;SDS011;67803;41.330;69.282;2024-02-26T04:00:11;141.30;;;47.38;;
78346;SDS011;67803;41.330;69.282;2024-02-26T04:02:41;131.95;;;46.08;;
78346;SDS011;67803;41.330;69.282;2024-02-26T04:05:12;159.85;;;49.88;;
78346;SDS011;67803;41.330;69.282;2024-02-26T04:07:43;131.77;;;47.85;;
78346;SDS011;67803;41.330;69.282;2024-02-26T04:10:13;141.68;;;48.95;;
78346;SDS011;67803;41.330;69.282;2024-02-26T04:12:44;138.63;;;49.13;;
78346;SDS011;67803;41.330;69.282;2024-02-26T04:15:16;160.35;;;49.63;;
78346;SDS011;67803;41.330;69.282;2024-02-26T04:17:46;133.15;;;47.22;;
78346;SDS011;67803;41.330;69.282;2024-02-26T04:20:17;129.25;;;47.03;;
78346;SDS011;67803;41.330;69.282;2024-02-26T04:22:47;151.95;;;48.35;;
78346;SDS011;67803;41.330;69.282;2024-02-26T04:25:18;149.07;;;45.92;;
78346;SDS011;67803;41.330;69.282;2024-02-26T04:27:48;116.78;;;41.67;;
78346;SDS011;67803;41.330;69.282;2024-02-26T04:30:19;121.70;;;41.78;;
78346;SDS011;67803;41.330;69.282;2024-02-26T04:32:49;115.25;;;36.28;;
78346;SDS011;67803;41.330;69.282;2024-02-26T04:35:20;168.90;;;44.00;;
78346;SDS011;67803;41.330;69.282;2024-02-26T04:37:50;96.55;;;33.72;;
78346;SDS011;67803;41.330;69.282;2024-02-26T04:40:21;101.82;;;33.58;;
78346;SDS011;67803;41.330;69.282;2024-02-26T04:42:52;86.78;;;31.98;;
78346;SDS011;67803;41.330;69.282;2024-02-26T04:45:22;93.75;;;31.10;;
78346;SDS011;67803;41.330;69.282;2024-02-26T04:47:53;100.30;;;35.17;;
78346;SDS011;67803;41.330;69.282;2024-02-26T04:50:23;98.57;;;36.65;;
78346;SDS011;67803;41.330;69.282;2024-02-26T04:52:54;95.97;;;37.83;;
78346;SDS011;67803;41.330;69.282;2024-02-26T04:55:24;105.47;;;39.70;;
78346;SDS011;67803;41.330;69.282;2024-02-26T04:57:55;119.57;;;44.40;;
78346;SDS011;67803;41.330;69.282;2024-02-26T05:00:25;116.13;;;44.38;;
78346;SDS011;67803;41.330;69.282;2024-02-26T05:02:56;129.88;;;45.42;;
78346;SDS011;67803;41.330;69.282;2024-02-26T05:05:26;116.65;;;44.13;;
78346;SDS011;67803;41.330;69.282;2024-02-26T05:07:57;131.82;;;49.65;;
78346;SDS011;67803;41.330;69.282;2024-02-26T05:10:27;132.65;;;49.15;;
78346;SDS011;67803;41.330;69.282;2024-02-26T05:12:58;206.20;;;49.85;;
78346;SDS011;67803;41.330;69.282;2024-02-26T05:15:28;122.63;;;46.97;;
78346;SDS011;67803;41.330;69.282;2024-02-26T05:17:59;121.40;;;46.03;;
78346;SDS011;67803;41.330;69.282;2024-02-26T05:20:29;110.70;;;41.17;;
78346;SDS011;67803;41.330;69.282;2024-02-26T05:23:01;110.88;;;45.60;;
78346;SDS011;67803;41.330;69.282;2024-02-26T05:25:32;124.93;;;44.13;;
78346;SDS011;67803;41.330;69.282;2024-02-26T05:28:02;101.70;;;40.00;;
78346;SDS011;67803;41.330;69.282;2024-02-26T05:30:33;103.50;;;37.33;;
78346;SDS011;67803;41.330;69.282;2024-02-26T05:33:03;101.47;;;39.80;;
78346;SDS011;67803;41.330;69.282;2024-02-26T05:35:34;85.43;;;32.42;;
78346;SDS011;67803;41.330;69.282;2024-02-26T05:38:05;77.07;;;28.55;;
78346;SDS011;67803;41.330;69.282;2024-02-26T05:40:35;73.60;;;29.33;;
78346;SDS011;67803;41.330;69.282;2024-02-26T05:43:06;75.78;;;30.17;;
78346;SDS011;67803;41.330;69.282;2024-02-26T05:45:36;107.05;;;31.30;;
78346;SDS011;67803;41.330;69.282;2024-02-26T05:48:07;150.30;;;39.33;;
78346;SDS011;67803;41.330;69.282;2024-02-26T05:50:37;105.43;;;33.85;;
78346;SDS011;67803;41.330;69.282;2024-02-26T05:53:08;105.30;;;35.88;;
78346;SDS011;67803;41.330;69.282;2024-02-26T05:55:38;80.97;;;30.02;;
78346;SDS011;67803;41.330;69.282;2024-02-26T05:58:09;85.47;;;31.25;;
78346;SDS011;67803;41.330;69.282;2024-02-26T06:00:39;76.13;;;29.50;;
78346;SDS011;67803;41.330;69.282;2024-02-26T06:03:10;83.53;;;29.38;;
78346;SDS011;67803;41.330;69.282;2024-02-26T06:05:41;80.70;;;30.13;;
78346;SDS011;67803;41.330;69.282;2024-02-26T06:08:12;81.57;;;30.25;;
78346;SDS011;67803;41.330;69.282;2024-02-26T06:10:43;93.30;;;34.08;;
78346;SDS011;67803;41.330;69.282;2024-02-26T06:13:14;80.10;;;32.78;;
78346;SDS011;67803;41.330;69.282;2024-02-26T06:15:44;98.40;;;35.15;;
78346;SDS011;67803;41.330;69.282;2024-02-26T06:18:15;92.25;;;33.70;;
78346;SDS011;67803;41.330;69.282;2024-02-26T06:20:46;83.85;;;32.72;;
78346;SDS011;67803;41.330;69.282;2024-02-26T06:23:16;84.82;;;32.92;;
78346;SDS011;67803;41.330;69.282;2024-02-26T06:25:47;86.38;;;29.73;;
78346;SDS011;67803;41.330;69.282;2024-02-26T06:28:18;85.63;;;33.10;;
78346;SDS011;67803;41.330;69.282;2024-02-26T06:30:48;74.47;;;30.40;;
78346;SDS011;67803;41.330;69.282;2024-02-26T06:33:20;114.28;;;35.92;;
78346;SDS011;67803;41.330;69.282;2024-02-26T06:35:51;76.00;;;31.73;;
78346;SDS011;67803;41.330;69.282;2024-02-26T06:38:21;68.25;;;30.80;;
78346;SDS011;67803;41.330;69.282;2024-02-26T06:40:52;68.55;;;30.17;;
78346;SDS011;67803;41.330;69.282;2024-02-26T06:43:23;82.90;;;31.05;;
78346;SDS011;67803;41.330;69.282;2024-02-26T06:45:53;83.47;;;33.88;;
78346;SDS011;67803;41.330;69.282;2024-02-26T06:48:24;94.15;;;36.05;;
78346;SDS011;67803;41.330;69.282;2024-02-26T06:50:54;115.82;;;38.90;;
78346;SDS011;67803;41.330;69.282;2024-02-26T06:53:25;126.00;;;40.22;;
78346;SDS011;67803;41.330;69.282;2024-02-26T06:57:07;91.43;;;36.53;;
78346;SDS011;67803;41.330;69.282;2024-02-26T06:59:37;115.20;;;40.88;;
78346;SDS011;67803;41.330;69.282;2024-02-26T07:02:08;114.60;;;44.83;;
78346;SDS011;67803;41.330;69.282;2024-02-26T07:04:39;83.40;;;33.47;;
78346;SDS011;67803;41.330;69.282;2024-02-26T07:07:10;87.65;;;35.40;;
78346;SDS011;67803;41.330;69.282;2024-02-26T07:09:41;86.68;;;34.42;;
78346;SDS011;67803;41.330;69.282;2024-02-26T07:12:12;115.13;;;37.58;;
78346;SDS011;67803;41.330;69.282;2024-02-26T07:14:42;423.65;;;77.25;;
78346;SDS011;67803;41.330;69.282;2024-02-26T07:17:13;136.10;;;40.63;;
78346;SDS011;67803;41.330;69.282;2024-02-26T07:19:44;115.43;;;39.97;;
78346;SDS011;67803;41.330;69.282;2024-02-26T07:22:14;101.32;;;37.20;;
78346;SDS011;67803;41.330;69.282;2024-02-26T07:24:45;95.60;;;36.90;;
78346;SDS011;67803;41.330;69.282;2024-02-26T07:27:15;92.53;;;35.53;;
78346;SDS011;67803;41.330;69.282;2024-02-26T07:29:47;96.35;;;34.10;;
78346;SDS011;67803;41.330;69.282;2024-02-26T07:32:18;90.07;;;35.58;;
78346;SDS011;67803;41.330;69.282;2024-02-26T07:34:48;95.40;;;36.35;;
78346;SDS011;67803;41.330;69.282;2024-02-26T07:37:19;275.08;;;57.80;;
78346;SDS011;67803;41.330;69.282;2024-02-26T07:39:49;119.90;;;36.97;;
78346;SDS011;67803;41.330;69.282;2024-02-26T07:42:20;112.72;;;36.42;;
78346;SDS011;67803;41.330;69.282;2024-02-26T07:44:50;86.15;;;32.30;;
78346;SDS011;67803;41.330;69.282;2024-02-26T07:47:21;82.60;;;30.17;;
78346;SDS011;67803;41.330;69.282;2024-02-26T07:49:51;114.25;;;35.90;;
78346;SDS011;67803;41.330;69.282;2024-02-26T07:52:22;78.05;;;31.98;;
78346;SDS011;67803;41.330;69.282;2024-02-26T07:54:53;75.40;;;30.42;;
78346;SDS011;67803;41.330;69.282;2024-02-26T07:57:23;74.93;;;30.83;;
78346;SDS011;67803;41.330;69.282;2024-02-26T07:59:53;98.68;;;34.92;;
78346;SDS011;67803;41.330;69.282;2024-02-26T08:02:24;89.05;;;34.83;;
78346;SDS011;67803;41.330;69.282;2024-02-26T08:04:55;73.75;;;30.50;;
78346;SDS011;67803;41.330;69.282;2024-02-26T08:07:25;71.85;;;30.88;;
78346;SDS011;67803;41.330;69.282;2024-02-26T08:09:56;78.63;;;31.63;;
78346;SDS011;67803;41.330;69.282;2024-02-26T08:12:26;89.30;;;30.90;;
78346;SDS011;67803;41.330;69.282;2024-02-26T08:14:57;72.82;;;30.40;;
78346;SDS011;67803;41.330;69.282;2024-02-26T08:17:28;93.65;;;32.92;;
78346;SDS011;67803;41.330;69.282;2024-02-26T08:19:59;104.78;;;32.88;;
78346;SDS011;67803;41.330;69.282;2024-02-26T08:22:29;82.95;;;29.88;;
78346;SDS011;67803;41.330;69.282;2024-02-26T08:25:00;68.38;;;30.23;;
78346;SDS011;67803;41.330;69.282;2024-02-26T08:27:33;96.22;;;35.38;;
78346;SDS011;67803;41.330;69.282;2024-02-26T08:30:03;71.82;;;30.85;;
78346;SDS011;67803;41.330;69.282;2024-02-26T08:32:34;104.40;;;35.95;;
78346;SDS011;67803;41.330;69.282;2024-02-26T08:35:05;87.22;;;33.58;;
78346;SDS011;67803;41.330;69.282;2024-02-26T08:37:35;76.57;;;33.47;;
78346;SDS011;67803;41.330;69.282;2024-02-26T08:40:06;89.95;;;35.13;;
78346;SDS011;67803;41.330;69.282;2024-02-26T08:42:36;85.45;;;35.05;;
78346;SDS011;67803;41.330;69.282;2024-02-26T08:45:07;87.03;;;35.72;;
78346;SDS011;67803;41.330;69.282;2024-02-26T08:47:38;81.03;;;34.15;;
78346;SDS011;67803;41.330;69.282;2024-02-26T08:50:09;78.30;;;31.55;;
78346;SDS011;67803;41.330;69.282;2024-02-26T08:52:40;94.72;;;37.00;;
78346;SDS011;67803;41.330;69.282;2024-02-26T08:55:11;88.28;;;34.88;;
78346;SDS011;67803;41.330;69.282;2024-02-26T08:57:42;73.65;;;33.15;;
78346;SDS011;67803;41.330;69.282;2024-02-26T09:00:13;73.30;;;31.00;;
78346;SDS011;67803;41.330;69.282;2024-02-26T09:02:46;102.90;;;34.33;;
78346;SDS011;67803;41.330;69.282;2024-02-26T09:05:17;72.28;;;31.25;;
78346;SDS011;67803;41.330;69.282;2024-02-26T09:07:47;76.00;;;32.85;;
78346;SDS011;67803;41.330;69.282;2024-02-26T09:10:17;100.75;;;36.90;;
78346;SDS011;67803;41.330;69.282;2024-02-26T09:12:48;115.82;;;38.08;;
78346;SDS011;67803;41.330;69.282;2024-02-26T09:15:18;123.40;;;38.92;;
78346;SDS011;67803;41.330;69.282;2024-02-26T09:17:49;79.43;;;34.60;;
78346;SDS011;67803;41.330;69.282;2024-02-26T09:20:20;81.35;;;33.90;;
78346;SDS011;67803;41.330;69.282;2024-02-26T09:22:51;78.30;;;31.27;;
78346;SDS011;67803;41.330;69.282;2024-02-26T09:25:22;76.75;;;30.30;;
78346;SDS011;67803;41.330;69.282;2024-02-26T09:27:52;76.47;;;33.58;;
78346;SDS011;67803;41.330;69.282;2024-02-26T09:30:23;78.97;;;30.08;;
78346;SDS011;67803;41.330;69.282;2024-02-26T09:32:53;57.97;;;29.10;;
78346;SDS011;67803;41.330;69.282;2024-02-26T09:35:24;57.90;;;29.05;;
78346;SDS011;67803;41.330;69.282;2024-02-26T09:37:54;56.15;;;28.33;;
78346;SDS011;67803;41.330;69.282;2024-02-26T09:40:25;83.63;;;29.42;;
78346;SDS011;67803;41.330;69.282;2024-02-26T09:43:00;82.22;;;29.13;;
78346;SDS011;67803;41.330;69.282;2024-02-26T09:45:34;52.60;;;26.92;;
78346;SDS011;67803;41.330;69.282;2024-02-26T09:48:05;56.40;;;27.40;;
78346;SDS011;67803;41.330;69.282;2024-02-26T09:50:37;48.60;;;24.80;;
78346;SDS011;67803;41.330;69.282;2024-02-26T09:53:08;55.25;;;26.45;;
78346;SDS011;67803;41.330;69.282;2024-02-26T09:55:40;67.78;;;27.08;;
78346;SDS011;67803;41.330;69.282;2024-02-26T09:58:11;50.53;;;25.42;;
78346;SDS011;67803;41.330;69.282;2024-02-26T10:00:51;46.25;;;24.77;;
78346;SDS011;67803;41.330;69.282;2024-02-26T10:03:22;49.90;;;24.85;;
78346;SDS011;67803;41.330;69.282;2024-02-26T10:05:56;55.20;;;26.42;;
78346;SDS011;67803;41.330;69.282;2024-02-26T10:08:27;48.60;;;24.23;;
78346;SDS011;67803;41.330;69.282;2024-02-26T10:10:58;47.25;;;24.90;;
78346;SDS011;67803;41.330;69.282;2024-02-26T10:13:29;52.10;;;28.17;;
78346;SDS011;67803;41.330;69.282;2024-02-26T10:16:00;58.87;;;29.67;;
78346;SDS011;67803;41.330;69.282;2024-02-26T10:21:16;52.90;;;27.23;;
78346;SDS011;67803;41.330;69.282;2024-02-26T10:23:48;50.10;;;26.33;;
78346;SDS011;67803;41.330;69.282;2024-02-26T10:26:19;63.70;;;28.05;;
78346;SDS011;67803;41.330;69.282;2024-02-26T10:28:50;50.13;;;25.38;;
78346;SDS011;67803;41.330;69.282;2024-02-26T10:31:20;57.97;;;27.67;;
78346;SDS011;67803;41.330;69.282;2024-02-26T10:33:51;56.53;;;27.63;;
78346;SDS011;67803;41.330;69.282;2024-02-26T10:36:25;56.53;;;27.27;;
78346;SDS011;67803;41.330;69.282;2024-02-26T10:38:56;56.10;;;28.38;;
78346;SDS011;67803;41.330;69.282;2024-02-26T10:41:26;61.63;;;29.33;;
78346;SDS011;67803;41.330;69.282;2024-02-26T10:43:57;53.78;;;27.52;;
78346;SDS011;67803;41.330;69.282;2024-02-26T10:46:27;57.28;;;28.67;;
78346;SDS011;67803;41.330;69.282;2024-02-26T10:48:58;61.05;;;29.70;;
78346;SDS011;67803;41.330;69.282;2024-02-26T10:51:30;61.60;;;28.58;;
78346;SDS011;67803;41.330;69.282;2024-02-26T10:54:00;55.45;;;26.92;;
78346;SDS011;67803;41.330;69.282;2024-02-26T10:56:33;55.25;;;27.23;;
78346;SDS011;67803;41.330;69.282;2024-02-26T10:59:03;59.03;;;28.00;;
78346;SDS011;67803;41.330;69.282;2024-02-26T11:01:34;66.65;;;30.25;;
78346;SDS011;67803;41.330;69.282;2024-02-26T11:04:08;66.45;;;27.48;;
78346;SDS011;67803;41.330;69.282;2024-02-26T11:06:39;62.97;;;29.35;;
78346;SDS011;67803;41.330;69.282;2024-02-26T11:09:11;54.08;;;28.10;;
78346;SDS011;67803;41.330;69.282;2024-02-26T11:11:43;53.13;;;26.77;;
78346;SDS011;67803;41.330;69.282;2024-02-26T11:14:14;57.70;;;28.52;;
78346;SDS011;67803;41.330;69.282;2024-02-26T11:16:44;55.08;;;27.33;;
78346;SDS011;67803;41.330;69.282;2024-02-26T11:19:15;60.72;;;28.38;;
78346;SDS011;67803;41.330;69.282;2024-02-26T11:21:46;55.15;;;27.88;;
78346;SDS011;67803;41.330;69.282;2024-02-26T11:24:17;52.75;;;27.27;;
78346;SDS011;67803;41.330;69.282;2024-02-26T11:26:52;54.88;;;26.30;;
78346;SDS011;67803;41.330;69.282;2024-02-26T11:29:31;48.75;;;25.08;;
78346;SDS011;67803;41.330;69.282;2024-02-26T11:32:03;51.03;;;26.80;;
78346;SDS011;67803;41.330;69.282;2024-02-26T11:34:34;49.00;;;25.33;;
78346;SDS011;67803;41.330;69.282;2024-02-26T11:37:14;50.85;;;23.50;;
78346;SDS011;67803;41.330;69.282;2024-02-26T11:39:45;58.97;;;27.05;;
78346;SDS011;67803;41.330;69.282;2024-02-26T11:42:16;52.08;;;25.50;;
78346;SDS011;67803;41.330;69.282;2024-02-26T11:44:47;68.50;;;26.77;;
78346;SDS011;67803;41.330;69.282;2024-02-26T11:47:18;48.45;;;25.10;;
78346;SDS011;67803;41.330;69.282;2024-02-26T11:49:49;48.72;;;24.55;;
78346;SDS011;67803;41.330;69.282;2024-02-26T11:52:20;81.45;;;27.38;;
78346;SDS011;67803;41.330;69.282;2024-02-26T11:54:51;54.58;;;23.25;;
78346;SDS011;67803;41.330;69.282;2024-02-26T11:57:37;49.75;;;23.80;;
78346;SDS011;67803;41.330;69.282;2024-02-26T12:00:14;48.40;;;23.05;;
78346;SDS011;67803;41.330;69.282;2024-02-26T12:02:49;73.45;;;28.42;;
78346;SDS011;67803;41.330;69.282;2024-02-26T12:05:21;49.40;;;23.90;;
78346;SDS011;67803;41.330;69.282;2024-02-26T12:10:33;53.23;;;23.20;;
78346;SDS011;67803;41.330;69.282;2024-02-26T12:13:10;55.53;;;24.90;;
78346;SDS011;67803;41.330;69.282;2024-02-26T12:15:44;55.47;;;23.80;;
78346;SDS011;67803;41.330;69.282;2024-02-26T12:18:16;48.85;;;23.50;;
78346;SDS011;67803;41.330;69.282;2024-02-26T12:20:57;49.92;;;23.27;;
78346;SDS011;67803;41.330;69.282;2024-02-26T12:23:28;50.92;;;23.40;;
78346;SDS011;67803;41.330;69.282;2024-02-26T12:25:59;49.42;;;23.95;;
78346;SDS011;67803;41.330;69.282;2024-02-26T12:28:29;50.80;;;25.52;;
78346;SDS011;67803;41.330;69.282;2024-02-26T12:31:00;48.55;;;24.23;;
78346;SDS011;67803;41.330;69.282;2024-02-26T12:33:31;63.90;;;23.13;;
78346;SDS011;67803;41.330;69.282;2024-02-26T12:36:02;48.17;;;23.95;;
78346;SDS011;67803;41.330;69.282;2024-02-26T12:38:32;48.00;;;23.98;;
78346;SDS011;67803;41.330;69.282;2024-02-26T12:41:05;46.35;;;22.92;;
78346;SDS011;67803;41.330;69.282;2024-02-26T12:43:36;47.50;;;23.48;;
78346;SDS011;67803;41.330;69.282;2024-02-26T12:46:08;61.35;;;23.77;;
78346;SDS011;67803;41.330;69.282;2024-02-26T12:48:38;50.05;;;23.25;;
78346;SDS011;67803;41.330;69.282;2024-02-26T12:51:12;44.65;;;22.35;;
78346;SDS011;67803;41.330;69.282;2024-02-26T12:53:43;45.60;;;22.45;;
78346;SDS011;67803;41.330;69.282;2024-02-26T12:56:14;46.85;;;23.17;;
78346;SDS011;67803;41.330;69.282;2024-02-26T12:58:44;47.05;;;22.25;;
78346;SDS011;67803;41.330;69.282;2024-02-26T13:01:16;48.53;;;24.20;;
78346;SDS011;67803;41.330;69.282;2024-02-26T13:03:46;47.00;;;23.67;;
78346;SDS011;67803;41.330;69.282;2024-02-26T13:06:17;52.42;;;25.27;;
78346;SDS011;67803;41.330;69.282;2024-02-26T13:08:49;57.45;;;26.55;;
78346;SDS011;67803;41.330;69.282;2024-02-26T13:11:19;59.70;;;29.33;;
78346;SDS011;67803;41.330;69.282;2024-02-26T13:13:50;63.30;;;27.85;;
78346;SDS011;67803;41.330;69.282;2024-02-26T13:16:23;59.08;;;26.02;;
78346;SDS011;67803;41.330;69.282;2024-02-26T13:18:54;60.30;;;26.63;;
78346;SDS011;67803;41.330;69.282;2024-02-26T13:21:25;56.15;;;27.38;;
78346;SDS011;67803;41.330;69.282;2024-02-26T13:23:56;54.70;;;24.85;;
78346;SDS011;67803;41.330;69.282;2024-02-26T13:29:02;65.30;;;27.90;;
78346;SDS011;67803;41.330;69.282;2024-02-26T13:31:39;59.90;;;26.65;;
78346;SDS011;67803;41.330;69.282;2024-02-26T13:34:10;60.67;;;27.75;;
78346;SDS011;67803;41.330;69.282;2024-02-26T13:36:40;61.17;;;27.83;;
78346;SDS011;67803;41.330;69.282;2024-02-26T13:39:11;61.58;;;28.95;;
78346;SDS011;67803;41.330;69.282;2024-02-26T13:41:51;63.88;;;28.42;;
78346;SDS011;67803;41.330;69.282;2024-02-26T13:44:22;60.60;;;26.30;;
78346;SDS011;67803;41.330;69.282;2024-02-26T13:46:53;65.55;;;28.17;;
78346;SDS011;67803;41.330;69.282;2024-02-26T13:49:23;61.40;;;27.70;;
78346;SDS011;67803;41.330;69.282;2024-02-26T13:51:54;60.00;;;27.92;;
78346;SDS011;67803;41.330;69.282;2024-02-26T13:54:24;59.80;;;28.00;;
78346;SDS011;67803;41.330;69.282;2024-02-26T13:56:55;72.55;;;28.48;;
78346;SDS011;67803;41.330;69.282;2024-02-26T13:59:26;64.00;;;27.30;;
78346;SDS011;67803;41.330;69.282;2024-02-26T14:01:56;67.22;;;28.45;;
78346;SDS011;67803;41.330;69.282;2024-02-26T14:04:26;68.20;;;28.85;;
78346;SDS011;67803;41.330;69.282;2024-02-26T14:06:57;73.00;;;31.02;;
78346;SDS011;67803;41.330;69.282;2024-02-26T14:09:27;60.33;;;27.85;;
78346;SDS011;67803;41.330;69.282;2024-02-26T14:11:59;64.15;;;29.52;;
78346;SDS011;67803;41.330;69.282;2024-02-26T14:14:30;79.22;;;32.13;;
78346;SDS011;67803;41.330;69.282;2024-02-26T14:17:03;74.03;;;32.78;;
78346;SDS011;67803;41.330;69.282;2024-02-26T14:19:34;68.22;;;31.13;;
78346;SDS011;67803;41.330;69.282;2024-02-26T14:22:04;73.75;;;32.75;;
78346;SDS011;67803;41.330;69.282;2024-02-26T14:24:35;70.30;;;31.15;;
78346;SDS011;67803;41.330;69.282;2024-02-26T14:27:10;73.35;;;31.98;;
78346;SDS011;67803;41.330;69.282;2024-02-26T14:29:41;77.70;;;34.45;;
78346;SDS011;67803;41.330;69.282;2024-02-26T14:32:13;73.13;;;34.03;;
78346;SDS011;67803;41.330;69.282;2024-02-26T14:34:43;101.72;;;38.03;;